createdAt,value
2023-06-09T00:02:20.625Z,12.23
2023-06-09T00:04:47.976Z,18.08
2023-06-09T00:07:18.196Z,13.23
2023-06-09T00:09:45.828Z,14.20
2023-06-09T00:12:13.934Z,14.35
2023-06-09T00:14:41.500Z,14.00
2023-06-09T00:17:09.548Z,15.15
2023-06-09T00:19:43.468Z,15.57
2023-06-09T00:22:15.201Z,19.67
2023-06-09T00:24:42.574Z,13.50
2023-06-09T00:27:10.273Z,15.98
2023-06-09T00:29:37.216Z,15.43
2023-06-09T00:32:06.913Z,18.85
2023-06-09T00:34:34.122Z,16.48
2023-06-09T00:37:01.422Z,13.68
2023-06-09T00:39:28.364Z,14.90
2023-06-09T00:41:55.354Z,15.73
2023-06-09T00:44:22.253Z,20.05
2023-06-09T00:46:49.881Z,15.18
2023-06-09T00:49:17.356Z,15.85
2023-06-09T00:51:44.612Z,14.23
2023-06-09T00:54:11.850Z,15.20
2023-06-09T00:56:40.125Z,15.85
2023-06-09T00:59:09.337Z,12.68
2023-06-09T01:01:38.348Z,15.85
2023-06-09T01:04:05.287Z,13.60
2023-06-09T01:06:57.699Z,15.75
2023-06-09T01:09:33.957Z,15.68
2023-06-09T01:12:26.186Z,18.35
2023-06-09T01:15:20.938Z,18.08
2023-06-09T01:18:10.278Z,20.63
2023-06-09T01:20:48.208Z,19.10
2023-06-09T01:23:53.791Z,16.65
2023-06-09T01:26:22.650Z,21.67
2023-06-09T01:28:49.776Z,19.00
2023-06-09T01:31:17.538Z,19.77
2023-06-09T01:33:46.103Z,21.25
2023-06-09T01:36:13.770Z,25.67
2023-06-09T01:38:41.469Z,19.45
2023-06-09T01:41:09.104Z,16.58
2023-06-09T01:43:36.360Z,16.23
2023-06-09T01:46:03.633Z,14.85
2023-06-09T01:48:42.625Z,20.10
2023-06-09T01:51:47.026Z,20.48
2023-06-09T01:54:26.205Z,21.33
2023-06-09T01:56:59.743Z,18.67
2023-06-09T01:59:34.723Z,18.17
2023-06-09T02:02:03.117Z,22.45
2023-06-09T02:04:31.997Z,19.08
2023-06-09T02:06:59.668Z,17.80
2023-06-09T02:09:26.916Z,16.27
2023-06-09T02:11:54.125Z,19.23
2023-06-09T02:14:21.713Z,13.82
2023-06-09T02:16:48.882Z,12.80
2023-06-09T02:19:18.231Z,16.50
2023-06-09T02:21:45.310Z,13.10
2023-06-09T02:24:12.344Z,17.30
2023-06-09T02:26:39.344Z,15.43
2023-06-09T02:29:06.647Z,14.10
2023-06-09T02:31:33.643Z,19.58
2023-06-09T02:34:00.742Z,17.20
2023-06-09T02:36:28.264Z,16.50
2023-06-09T02:38:55.567Z,14.63
2023-06-09T02:41:26.826Z,14.43
2023-06-09T02:43:53.876Z,14.98
2023-06-09T02:46:23.797Z,16.17
2023-06-09T02:48:50.812Z,14.00
2023-06-09T02:51:17.755Z,11.80
2023-06-09T02:53:44.736Z,14.80
2023-06-09T02:56:11.858Z,13.88
2023-06-09T02:58:38.909Z,13.35
2023-06-09T03:01:05.918Z,15.15
2023-06-09T03:03:32.990Z,12.65
2023-06-09T03:06:00.559Z,11.50
2023-06-09T03:08:27.525Z,12.93
2023-06-09T03:10:54.829Z,12.45
2023-06-09T03:13:23.055Z,13.88
2023-06-09T03:15:51.337Z,10.85
2023-06-09T03:18:18.830Z,17.42
2023-06-09T03:20:46.571Z,15.07
2023-06-09T03:23:14.941Z,13.20
2023-06-09T03:25:41.923Z,12.98
2023-06-09T03:28:09.017Z,18.15
2023-06-09T03:30:35.958Z,10.65
2023-06-09T03:33:03.116Z,16.45
2023-06-09T03:35:30.202Z,13.15
2023-06-09T03:37:57.157Z,11.63
2023-06-09T03:40:24.317Z,13.85
2023-06-09T03:42:51.353Z,13.85
2023-06-09T03:45:18.332Z,10.38
2023-06-09T03:47:45.906Z,13.77
2023-06-09T03:50:13.170Z,12.57
2023-06-09T03:52:41.316Z,19.73
2023-06-09T03:55:08.849Z,14.80
2023-06-09T03:57:35.967Z,14.90
2023-06-09T04:00:04.402Z,11.75
2023-06-09T04:02:31.785Z,13.25
2023-06-09T04:04:58.854Z,15.55
2023-06-09T04:07:26.127Z,13.60
2023-06-09T04:09:53.041Z,13.98
2023-06-09T04:12:23.050Z,14.80
2023-06-09T04:14:49.997Z,14.77
2023-06-09T04:17:17.164Z,19.05
2023-06-09T04:19:44.135Z,16.50
2023-06-09T04:22:11.667Z,15.55
2023-06-09T04:24:38.615Z,18.13
2023-06-09T04:27:05.930Z,16.30
2023-06-09T04:29:35.945Z,19.52
2023-06-09T04:32:03.407Z,17.20
2023-06-09T04:34:39.250Z,16.05
2023-06-09T04:37:09.998Z,12.68
2023-06-09T04:39:36.994Z,14.63
2023-06-09T04:42:08.766Z,16.95
2023-06-09T04:44:37.248Z,17.95
2023-06-09T04:47:04.570Z,15.98
2023-06-09T04:49:32.426Z,17.38
2023-06-09T04:52:00.453Z,15.40
2023-06-09T04:54:29.840Z,19.60
2023-06-09T04:57:01.313Z,21.23
2023-06-09T04:59:31.532Z,18.98
2023-06-09T05:01:59.093Z,17.40
2023-06-09T05:04:26.152Z,17.92
2023-06-09T05:06:53.315Z,21.70
2023-06-09T05:09:20.746Z,14.48
2023-06-09T05:11:47.665Z,25.05
2023-06-09T05:14:14.591Z,19.58
2023-06-09T05:16:41.631Z,19.33
2023-06-09T05:19:09.041Z,21.00
2023-06-09T05:21:37.265Z,22.23
2023-06-09T05:24:05.073Z,18.88
2023-06-09T05:26:32.117Z,17.05
2023-06-09T05:29:00.142Z,22.55
2023-06-09T05:31:27.588Z,21.58
2023-06-09T05:33:54.917Z,22.60
2023-06-09T05:36:21.892Z,22.02
2023-06-09T05:38:48.968Z,21.50
2023-06-09T05:41:16.614Z,24.63
2023-06-09T05:43:43.629Z,15.57
2023-06-09T05:46:11.068Z,21.45
2023-06-09T05:48:38.186Z,18.02
2023-06-09T05:51:05.216Z,19.33
2023-06-09T05:53:35.081Z,19.70
2023-06-09T05:56:03.661Z,17.20
2023-06-09T05:58:35.068Z,21.17
2023-06-09T06:01:04.790Z,18.65
2023-06-09T06:03:34.399Z,18.85
2023-06-09T06:06:02.103Z,18.33
2023-06-09T06:08:29.224Z,19.13
2023-06-09T06:10:56.441Z,15.32
2023-06-09T06:13:23.587Z,19.63
2023-06-09T06:15:50.825Z,17.35
2023-06-09T06:18:17.965Z,15.48
2023-06-09T06:20:45.142Z,19.50
2023-06-09T06:23:12.576Z,17.60
2023-06-09T06:25:42.808Z,17.17
2023-06-09T06:28:11.624Z,20.42
2023-06-09T06:30:38.910Z,20.25
2023-06-09T06:33:06.036Z,19.60
2023-06-09T06:35:33.534Z,18.13
2023-06-09T06:38:01.069Z,19.42
2023-06-09T06:40:28.863Z,19.60
2023-06-09T06:42:56.159Z,21.95
2023-06-09T06:45:23.902Z,18.08
2023-06-09T06:47:51.432Z,18.98
2023-06-09T06:50:18.796Z,16.88
2023-06-09T06:52:47.411Z,18.20
2023-06-09T06:55:14.536Z,17.60
2023-06-09T06:57:42.451Z,18.70
2023-06-09T07:00:15.750Z,18.85
2023-06-09T07:02:47.713Z,20.88
2023-06-09T07:05:16.045Z,20.55
2023-06-09T07:07:45.089Z,21.05
2023-06-09T07:10:12.958Z,16.73
2023-06-09T07:12:40.289Z,17.45
2023-06-09T07:15:08.059Z,17.75
2023-06-09T07:17:35.160Z,17.42
2023-06-09T07:20:02.176Z,16.38
2023-06-09T07:22:29.629Z,18.05
2023-06-09T07:24:57.623Z,17.40
2023-06-09T07:27:24.854Z,16.27
2023-06-09T07:29:51.993Z,16.42
2023-06-09T07:32:19.299Z,16.23
2023-06-09T07:34:46.839Z,15.98
2023-06-09T07:37:14.689Z,15.07
2023-06-09T07:39:41.774Z,18.42
2023-06-09T07:42:08.943Z,15.70
2023-06-09T07:44:36.581Z,16.65
2023-06-09T07:47:04.189Z,17.33
2023-06-09T07:49:31.258Z,18.73
2023-06-09T07:52:04.086Z,16.90
2023-06-09T07:54:38.375Z,15.45
2023-06-09T07:57:05.897Z,19.40
2023-06-09T07:59:33.223Z,18.88
2023-06-09T08:02:00.601Z,14.68
2023-06-09T08:04:29.594Z,15.85
2023-06-09T08:07:00.256Z,16.83
2023-06-09T08:09:27.502Z,17.85
2023-06-09T08:11:55.109Z,13.95
2023-06-09T08:14:23.516Z,14.85
2023-06-09T08:16:51.865Z,14.68
2023-06-09T08:19:19.068Z,18.67
2023-06-09T08:21:46.030Z,15.15
2023-06-09T08:24:13.638Z,13.73
2023-06-09T08:26:42.441Z,12.63
2023-06-09T08:29:09.636Z,17.02
2023-06-09T08:31:38.680Z,15.35
2023-06-09T08:34:06.991Z,12.25
2023-06-09T08:36:34.133Z,12.70
2023-06-09T08:39:01.462Z,13.85
2023-06-09T08:41:33.799Z,17.20
2023-06-09T08:44:02.935Z,11.93
2023-06-09T08:46:36.965Z,15.65
2023-06-09T08:49:04.571Z,13.90
2023-06-09T08:51:32.891Z,14.95
2023-06-09T08:54:01.961Z,16.10
2023-06-09T08:56:29.919Z,10.85
2023-06-09T08:58:57.479Z,10.98
2023-06-09T09:01:24.944Z,10.77
2023-06-09T09:03:52.488Z,10.20
2023-06-09T09:06:21.328Z,10.02
2023-06-09T09:08:49.550Z,9.77
2023-06-09T09:11:17.073Z,10.75
2023-06-09T09:13:48.010Z,13.57
2023-06-09T09:16:15.556Z,13.65
2023-06-09T09:18:50.049Z,9.30
2023-06-09T09:21:24.546Z,11.57
2023-06-09T09:24:02.584Z,12.90
2023-06-09T09:26:31.504Z,10.80
2023-06-09T09:29:07.216Z,11.85
2023-06-09T09:31:37.146Z,10.30
2023-06-09T09:34:04.625Z,11.15
2023-06-09T09:36:32.167Z,10.60
2023-06-09T09:39:07.048Z,9.48
2023-06-09T09:41:34.499Z,13.27
2023-06-09T09:44:02.996Z,10.75
2023-06-09T09:46:38.496Z,7.43
2023-06-09T09:49:08.362Z,8.85
2023-06-09T09:51:38.555Z,8.93
2023-06-09T09:54:06.992Z,11.70
2023-06-09T09:56:34.840Z,9.77
2023-06-09T09:59:03.829Z,9.45
2023-06-09T10:01:32.632Z,7.63
2023-06-09T10:06:56.832Z,8.63
2023-06-09T10:09:25.934Z,8.82
2023-06-09T10:11:54.875Z,9.60
2023-06-09T10:14:22.993Z,8.88
2023-06-09T10:16:53.173Z,9.80
2023-06-09T10:19:24.636Z,11.82
2023-06-09T10:21:54.053Z,10.57
2023-06-09T10:24:25.666Z,11.70
2023-06-09T10:26:54.030Z,10.63
2023-06-09T10:29:21.636Z,10.13
2023-06-09T10:31:50.348Z,8.38
2023-06-09T10:34:18.801Z,9.23
2023-06-09T10:36:47.025Z,9.10
2023-06-09T10:39:23.621Z,11.27
2023-06-09T10:42:13.449Z,12.55
2023-06-09T10:44:52.430Z,10.75
2023-06-09T10:47:52.477Z,8.75
2023-06-09T10:50:27.014Z,9.15
2023-06-09T10:52:56.802Z,8.95
2023-06-09T10:55:32.427Z,11.88
2023-06-09T10:57:59.643Z,11.43
2023-06-09T11:00:46.895Z,10.02
2023-06-09T11:03:32.658Z,7.07
2023-06-09T11:06:01.722Z,10.68
2023-06-09T11:09:02.987Z,9.10
2023-06-09T11:11:51.639Z,7.57
2023-06-09T11:14:47.535Z,9.75
2023-06-09T11:17:32.400Z,8.73
2023-06-09T11:20:13.051Z,10.00
2023-06-09T11:22:45.196Z,9.57
2023-06-09T11:25:25.984Z,11.32
2023-06-09T11:27:56.397Z,8.73
2023-06-09T11:30:28.325Z,10.00
2023-06-09T11:33:03.383Z,8.68
2023-06-09T11:35:31.080Z,7.28
2023-06-09T11:38:04.119Z,10.90
2023-06-09T11:40:32.363Z,7.40
2023-06-09T11:43:01.271Z,11.00
2023-06-09T11:45:31.076Z,10.13
2023-06-09T11:48:02.177Z,6.82
2023-06-09T11:50:43.806Z,10.35
2023-06-09T11:53:11.695Z,9.15
2023-06-09T11:55:39.132Z,6.88
2023-06-09T11:58:09.902Z,9.30
2023-06-09T12:00:45.229Z,12.60
2023-06-09T12:03:13.605Z,9.68
2023-06-09T12:05:42.628Z,12.77
2023-06-09T12:08:13.627Z,11.73
2023-06-09T12:10:41.867Z,9.80
2023-06-09T12:13:09.327Z,9.25
2023-06-09T12:15:36.387Z,8.57
2023-06-09T12:18:05.078Z,11.32
2023-06-09T12:20:37.109Z,12.10
2023-06-09T12:23:13.893Z,10.23
2023-06-09T12:25:48.307Z,11.63
2023-06-09T12:28:19.458Z,10.00
2023-06-09T12:30:51.407Z,11.68
2023-06-09T12:33:23.214Z,17.00
2023-06-09T12:35:52.527Z,8.75
2023-06-09T12:38:19.805Z,10.65
2023-06-09T12:40:59.999Z,8.30
2023-06-09T12:43:28.156Z,17.17
2023-06-09T12:45:59.544Z,8.88
2023-06-09T12:48:26.771Z,11.32
2023-06-09T12:50:57.838Z,8.52
2023-06-09T12:53:24.969Z,7.85
2023-06-09T12:55:51.877Z,9.60
2023-06-09T12:58:18.890Z,8.48
2023-06-09T13:00:46.115Z,9.80
2023-06-09T13:03:13.481Z,4.63
2023-06-09T13:05:40.896Z,7.28
2023-06-09T13:08:08.059Z,9.93
2023-06-09T13:10:35.175Z,4.88
2023-06-09T13:13:02.956Z,8.27
2023-06-09T13:15:30.072Z,6.30
2023-06-09T13:17:57.322Z,7.38
2023-06-09T13:20:24.701Z,5.50
2023-06-09T13:22:52.834Z,7.22
2023-06-09T13:25:20.348Z,7.50
2023-06-09T13:27:47.748Z,6.70
2023-06-09T13:30:15.033Z,5.00
2023-06-09T13:32:42.386Z,7.00
2023-06-09T13:35:10.471Z,6.22
2023-06-09T13:37:37.771Z,7.95
2023-06-09T13:40:05.885Z,6.75
2023-06-09T13:42:33.464Z,7.07
2023-06-09T13:45:00.785Z,6.00
2023-06-09T13:47:28.362Z,4.63
2023-06-09T13:49:56.585Z,8.02
2023-06-09T13:52:24.964Z,6.50
2023-06-09T13:54:52.419Z,5.85
2023-06-09T13:57:19.720Z,11.38
2023-06-09T13:59:47.038Z,5.57
2023-06-09T14:02:14.527Z,7.93
2023-06-09T14:04:41.884Z,7.10
2023-06-09T14:07:09.292Z,8.10
2023-06-09T14:09:36.876Z,7.25
2023-06-09T14:12:07.249Z,6.70
2023-06-09T14:14:37.697Z,9.13
2023-06-09T14:17:05.429Z,8.98
2023-06-09T14:19:32.768Z,8.18
2023-06-09T14:22:00.218Z,6.70
2023-06-09T14:24:27.548Z,5.60
2023-06-09T14:26:55.216Z,6.82
2023-06-09T14:29:22.699Z,6.80
2023-06-09T14:31:50.111Z,7.75
2023-06-09T14:34:17.514Z,6.28
2023-06-09T14:36:44.605Z,6.18
2023-06-09T14:39:12.564Z,6.15
2023-06-09T14:41:40.222Z,6.75
2023-06-09T14:44:07.769Z,9.23
2023-06-09T14:46:34.989Z,5.82
2023-06-09T14:49:02.462Z,7.25
2023-06-09T14:51:30.037Z,5.30
2023-06-09T14:53:57.291Z,6.47
2023-06-09T14:56:24.692Z,8.73
2023-06-09T14:58:52.009Z,6.00
2023-06-09T15:01:19.401Z,6.88
2023-06-09T15:03:46.492Z,6.72
2023-06-09T15:06:13.871Z,7.85
2023-06-09T15:08:41.299Z,6.85
2023-06-09T15:11:08.690Z,5.28
2023-06-09T15:13:35.643Z,8.50
2023-06-09T15:16:02.852Z,5.65
2023-06-09T15:18:33.552Z,6.72
2023-06-09T15:21:00.929Z,7.18
2023-06-09T15:23:28.202Z,6.00
2023-06-09T15:25:55.591Z,6.55
2023-06-09T15:28:23.067Z,9.18
2023-06-09T15:30:50.798Z,8.13
2023-06-09T15:33:22.799Z,9.80
2023-06-09T15:35:52.700Z,7.30
2023-06-09T15:38:22.189Z,10.00
2023-06-09T15:40:51.164Z,7.25
2023-06-09T15:43:20.514Z,6.28
2023-06-09T15:45:57.011Z,7.47
2023-06-09T15:48:24.596Z,6.55
2023-06-09T15:50:51.970Z,6.82
2023-06-09T15:53:21.511Z,8.98
2023-06-09T15:55:50.952Z,8.73
2023-06-09T15:58:18.197Z,9.45
2023-06-09T16:00:46.156Z,10.45
2023-06-09T16:03:13.375Z,8.40
2023-06-09T16:05:42.377Z,8.93
2023-06-09T16:08:12.099Z,7.53
2023-06-09T16:10:40.472Z,6.13
2023-06-09T16:13:08.536Z,5.90
2023-06-09T16:15:37.798Z,5.32
2023-06-09T16:18:07.431Z,11.20
2023-06-09T16:20:35.401Z,4.53
2023-06-09T16:23:03.891Z,4.82
2023-06-09T16:25:31.680Z,6.90
2023-06-09T16:27:59.913Z,5.50
2023-06-09T16:30:29.624Z,6.07
2023-06-09T16:32:56.751Z,5.97
2023-06-09T16:35:26.719Z,4.53
2023-06-09T16:37:54.868Z,4.55
2023-06-09T16:40:26.179Z,4.43
2023-06-09T16:42:54.306Z,5.05
2023-06-09T16:45:21.506Z,4.88
2023-06-09T16:47:48.764Z,4.78
2023-06-09T16:50:15.992Z,5.50
2023-06-09T16:52:48.008Z,4.22
2023-06-09T16:55:25.828Z,5.18
2023-06-09T16:57:55.901Z,4.95
2023-06-09T17:00:23.548Z,3.78
2023-06-09T17:02:53.551Z,4.63
2023-06-09T17:05:22.474Z,6.47
2023-06-09T17:07:49.456Z,5.18
2023-06-09T17:10:16.665Z,5.85
2023-06-09T17:12:43.746Z,4.85
2023-06-09T17:15:14.945Z,3.90
2023-06-09T17:17:41.988Z,3.72
2023-06-09T17:20:09.749Z,3.90
2023-06-09T17:22:37.252Z,3.65
2023-06-09T17:25:04.475Z,4.13
2023-06-09T17:27:31.361Z,4.00
2023-06-09T17:30:03.222Z,7.45
2023-06-09T17:32:35.769Z,3.63
2023-06-09T17:35:03.183Z,4.75
2023-06-09T17:37:30.786Z,4.15
2023-06-09T17:39:57.760Z,3.17
2023-06-09T17:42:24.896Z,4.40
2023-06-09T17:44:52.074Z,4.10
2023-06-09T17:47:19.140Z,5.07
2023-06-09T17:49:46.093Z,6.70
2023-06-09T17:52:15.536Z,3.80
2023-06-09T17:54:45.631Z,4.88
2023-06-09T17:57:13.097Z,6.05
2023-06-09T17:59:40.144Z,6.53
2023-06-09T18:02:08.420Z,6.03
2023-06-09T18:04:38.854Z,5.63
2023-06-09T18:07:06.459Z,5.90
2023-06-09T18:09:34.296Z,4.75
2023-06-09T18:12:01.878Z,7.43
2023-06-09T18:14:29.573Z,7.63
2023-06-09T18:16:56.816Z,4.63
2023-06-09T18:19:23.963Z,6.88
2023-06-09T18:21:51.200Z,4.70
2023-06-09T18:24:18.839Z,5.30
2023-06-09T18:26:46.680Z,6.20
2023-06-09T18:29:14.113Z,5.55
2023-06-09T18:31:41.401Z,4.43
2023-06-09T18:34:12.376Z,5.47
2023-06-09T18:36:40.257Z,5.78
2023-06-09T18:39:07.288Z,6.93
2023-06-09T18:41:34.804Z,6.75
2023-06-09T18:44:12.709Z,5.10
2023-06-09T18:46:40.477Z,6.57
2023-06-09T18:49:07.905Z,5.10
2023-06-09T18:51:36.557Z,5.68
2023-06-09T18:54:05.006Z,6.78
2023-06-09T18:56:32.217Z,6.43
2023-06-09T18:58:59.845Z,5.60
2023-06-09T19:01:28.527Z,7.00
2023-06-09T19:03:56.118Z,5.35
2023-06-09T19:06:23.635Z,5.55
2023-06-09T19:08:50.976Z,5.75
2023-06-09T19:11:18.368Z,5.28
2023-06-09T19:13:45.644Z,5.20
2023-06-09T19:16:12.796Z,5.88
2023-06-09T19:18:40.197Z,6.25
2023-06-09T19:21:07.680Z,6.28
2023-06-09T19:23:35.144Z,7.32
2023-06-09T19:26:02.857Z,5.95
2023-06-09T19:28:30.135Z,5.63
2023-06-09T19:30:57.513Z,4.93
2023-06-09T19:33:27.803Z,6.85
2023-06-09T19:35:55.345Z,6.70
2023-06-09T19:38:22.607Z,8.82
2023-06-09T19:40:52.865Z,6.28
2023-06-09T19:43:20.765Z,7.15
2023-06-09T19:45:48.731Z,5.35
2023-06-09T19:48:16.607Z,7.00
2023-06-09T19:50:44.925Z,6.53
2023-06-09T19:53:12.595Z,8.10
2023-06-09T19:55:39.937Z,7.35
2023-06-09T19:58:07.122Z,6.55
2023-06-09T20:00:35.687Z,9.60
2023-06-09T20:03:03.430Z,7.35
2023-06-09T20:05:31.106Z,8.18
2023-06-09T20:07:58.490Z,6.45
2023-06-09T20:10:27.947Z,8.77
2023-06-09T20:12:56.320Z,7.43
2023-06-09T20:15:23.822Z,6.85
2023-06-09T20:17:51.186Z,9.25
2023-06-09T20:20:18.642Z,7.10
2023-06-09T20:22:47.373Z,7.68
2023-06-09T20:25:14.894Z,10.88
2023-06-09T20:27:42.156Z,7.90
2023-06-09T20:30:09.962Z,7.70
2023-06-09T20:32:37.324Z,10.77
2023-06-09T20:35:04.744Z,7.97
2023-06-09T20:37:32.234Z,8.02
2023-06-09T20:39:59.594Z,9.25
2023-06-09T20:42:27.116Z,9.43
2023-06-09T20:44:55.863Z,10.32
2023-06-09T20:47:23.297Z,7.85
2023-06-09T20:49:50.544Z,10.25
2023-06-09T20:52:17.533Z,13.25
2023-06-09T20:54:44.818Z,8.90
2023-06-09T20:57:12.134Z,11.10
2023-06-09T20:59:39.899Z,10.93
2023-06-09T21:02:08.986Z,9.63
2023-06-09T21:04:40.181Z,13.38
2023-06-09T21:07:10.900Z,10.90
2023-06-09T21:09:38.822Z,12.07
2023-06-09T21:12:09.660Z,11.68
2023-06-09T21:14:37.463Z,11.45
2023-06-09T21:17:06.116Z,11.57
2023-06-09T21:19:36.784Z,11.80
2023-06-09T21:22:04.488Z,13.38
2023-06-09T21:24:32.894Z,13.93
2023-06-09T21:27:00.967Z,11.65
2023-06-09T21:29:30.064Z,14.38
2023-06-09T21:31:58.243Z,10.88
2023-06-09T21:34:25.955Z,10.50
2023-06-09T21:36:53.618Z,10.98
2023-06-09T21:39:21.188Z,12.80
2023-06-09T21:41:48.639Z,10.80
2023-06-09T21:44:16.499Z,12.98
2023-06-09T21:46:44.259Z,13.23
2023-06-09T21:49:11.859Z,14.02
2023-06-09T21:51:39.615Z,12.82
2023-06-09T21:54:07.467Z,10.77
2023-06-09T21:56:34.953Z,11.07
2023-06-09T21:59:02.371Z,10.65
2023-06-09T22:01:30.015Z,11.98
2023-06-09T22:03:57.716Z,10.75
2023-06-09T22:06:25.297Z,13.02
2023-06-09T22:08:52.684Z,11.15
2023-06-09T22:11:20.239Z,13.93
2023-06-09T22:13:48.125Z,12.30
2023-06-09T22:16:15.615Z,15.32
2023-06-09T22:18:43.057Z,8.88
2023-06-09T22:21:10.620Z,8.55
2023-06-09T22:23:38.156Z,10.45
2023-06-09T22:26:05.712Z,11.50
2023-06-09T22:28:33.142Z,14.27
2023-06-09T22:31:00.959Z,13.57
2023-06-09T22:33:30.000Z,11.02
2023-06-09T22:35:57.281Z,10.98
2023-06-09T22:38:24.433Z,10.07
2023-06-09T22:40:51.769Z,8.18
2023-06-09T22:43:18.864Z,11.13
2023-06-09T22:45:48.531Z,12.57
2023-06-09T22:48:15.602Z,12.93
2023-06-09T22:50:42.643Z,11.10
2023-06-09T22:53:09.641Z,13.07
2023-06-09T22:55:37.107Z,10.55
2023-06-09T22:58:04.466Z,10.68
2023-06-09T23:00:31.870Z,11.38
2023-06-09T23:02:59.078Z,15.05
2023-06-09T23:05:31.781Z,11.23
2023-06-09T23:07:59.033Z,15.45
2023-06-09T23:10:26.375Z,11.10
2023-06-09T23:12:53.455Z,13.15
2023-06-09T23:15:23.137Z,10.52
2023-06-09T23:17:51.130Z,11.63
2023-06-09T23:20:21.842Z,12.43
2023-06-09T23:22:51.906Z,9.55
2023-06-09T23:25:19.674Z,11.30
2023-06-09T23:27:47.209Z,12.45
2023-06-09T23:30:15.829Z,12.00
2023-06-09T23:32:44.389Z,12.20
2023-06-09T23:35:12.640Z,10.13
2023-06-09T23:37:41.944Z,13.23
2023-06-09T23:40:11.086Z,11.88
2023-06-09T23:42:39.491Z,10.25
2023-06-09T23:45:07.970Z,13.70
2023-06-09T23:47:36.908Z,12.00
2023-06-09T23:50:04.608Z,10.02
2023-06-09T23:52:33.916Z,12.05
2023-06-09T23:55:04.609Z,13.10
2023-06-09T23:57:31.904Z,14.40
2023-06-09T23:59:58.969Z,12.55
